Time;durP1;ratioP1;P1;durP2;ratioP2;P2;SDS_P1;SDS_P2;PMS_P1;PMS_P2;Temp;Humidity;BMP_temperature;BMP_pressure;BME280_temperature;BME280_humidity;BME280_pressure;Samples;Min_cycle;Max_cycle;Signal;HPM_P1;HPM_P2
2023/09/05 00:02:02;;;;;;;3.37;2.43;;;;;;;18.44;100.00;100694.09;5004326;28;20229;-70
2023/09/05 00:04:28;;;;;;;3.03;2.30;;;;;;;18.26;100.00;100693.78;5011695;28;20237;-71
2023/09/05 00:06:53;;;;;;;2.43;2.23;;;;;;;18.14;100.00;100697.34;5012004;28;20665;-70
2023/09/05 00:09:19;;;;;;;3.57;2.20;;;;;;;17.84;100.00;100696.09;5012110;28;20182;-71
2023/09/05 00:11:45;;;;;;;2.60;2.20;;;;;;;17.72;100.00;100696.09;5028499;28;20599;-71
2023/09/05 00:14:10;;;;;;;3.07;2.60;;;;;;;17.57;100.00;100700.66;5033533;28;20406;-72
2023/09/05 00:16:36;;;;;;;3.83;2.53;;;;;;;17.49;100.00;100707.38;5031998;28;20234;-71
2023/09/05 00:19:02;;;;;;;7.30;2.50;;;;;;;17.45;100.00;100706.75;5031922;28;20174;-70
2023/09/05 00:21:27;;;;;;;3.87;2.57;;;;;;;17.33;100.00;100713.72;5023598;28;20599;-70
2023/09/05 00:23:52;;;;;;;3.20;2.50;;;;;;;17.23;100.00;100704.94;5020188;28;20653;-70
2023/09/05 00:26:17;;;;;;;3.77;2.67;;;;;;;16.99;100.00;100710.94;5015862;28;20198;-70
2023/09/05 00:28:43;;;;;;;13.67;2.93;;;;;;;16.97;100.00;100705.03;5016189;28;20178;-72
2023/09/05 00:31:11;;;;;;;2.57;2.37;;;;;;;16.85;100.00;100700.69;5023892;28;20298;-71
2023/09/05 00:33:36;;;;;;;2.50;2.30;;;;;;;16.86;100.00;100707.56;5034453;28;20189;-71
2023/09/05 00:36:03;;;;;;;2.50;2.30;;;;;;;16.75;100.00;100705.72;5034940;28;20209;-70
2023/09/05 00:38:29;;;;;;;4.13;2.10;;;;;;;16.70;100.00;100710.41;5026627;28;20554;-71
2023/09/05 00:40:54;;;;;;;3.40;3.07;;;;;;;16.58;100.00;100705.16;5025026;28;20316;-70
2023/09/05 00:43:20;;;;;;;2.87;2.67;;;;;;;16.52;100.00;100707.31;5024666;28;20178;-71
2023/09/05 00:45:55;;;;;;;2.97;2.67;;;;;;;16.41;100.00;100708.06;5030115;28;20207;-70
2023/09/05 00:48:27;;;;;;;3.47;2.97;;;;;;;16.40;100.00;100702.06;5015774;28;20174;-71
2023/09/05 00:50:56;;;;;;;2.57;2.37;;;;;;;16.34;100.00;100697.28;5018265;28;20271;-70
2023/09/05 00:53:26;;;;;;;2.90;2.57;;;;;;;16.26;100.00;100699.56;5034170;28;20196;-69
2023/09/05 00:55:52;;;;;;;4.13;2.70;;;;;;;16.32;100.00;100703.53;5034530;28;20247;-71
2023/09/05 00:58:18;;;;;;;3.80;2.40;;;;;;;16.23;100.00;100702.41;5035363;28;20264;-69
2023/09/05 01:00:43;;;;;;;2.80;2.50;;;;;;;16.21;100.00;100699.91;5024562;28;20241;-71
2023/09/05 01:03:09;;;;;;;3.07;2.77;;;;;;;16.13;100.00;100692.63;5025466;28;20179;-69
2023/09/05 01:05:37;;;;;;;6.00;2.53;;;;;;;16.08;100.00;100697.31;5014687;28;20635;-70
2023/09/05 01:08:07;;;;;;;6.47;2.77;;;;;;;16.05;100.00;100689.75;5015247;28;20179;-71
2023/09/05 01:10:51;;;;;;;3.23;2.60;;;;;;;15.90;100.00;100690.78;5009003;28;20632;-70
2023/09/05 01:13:25;;;;;;;3.03;2.70;;;;;;;15.87;100.00;100691.00;5024983;28;20191;-70
2023/09/05 01:15:50;;;;;;;2.83;2.53;;;;;;;15.89;100.00;100696.91;5033323;28;20584;-71
2023/09/05 01:18:16;;;;;;;3.10;2.80;;;;;;;15.89;100.00;100686.53;5035078;28;20178;-71
2023/09/05 01:20:52;;;;;;;4.40;2.83;;;;;;;15.81;100.00;100687.00;5024226;28;20729;-71
2023/09/05 01:23:24;;;;;;;3.60;2.97;;;;;;;15.74;100.00;100693.53;5023597;28;20238;-71
2023/09/05 01:25:50;;;;;;;5.30;2.60;;;;;;;15.70;100.00;100692.91;5014281;28;20178;-72
2023/09/05 01:28:16;;;;;;;3.93;3.00;;;;;;;15.66;100.00;100694.06;5014813;28;20190;-70
2023/09/05 01:30:42;;;;;;;4.03;2.80;;;;;;;15.61;100.00;100693.53;5012217;28;20225;-70
2023/09/05 01:33:08;;;;;;;2.80;2.60;;;;;;;15.58;100.00;100684.19;5031056;28;20552;-71
2023/09/05 01:35:33;;;;;;;3.20;2.90;;;;;;;15.42;100.00;100689.56;5034344;28;20190;-71
2023/09/05 01:37:58;;;;;;;3.63;2.50;;;;;;;15.52;100.00;100688.94;5028352;28;20737;-70
2023/09/05 01:40:24;;;;;;;2.90;2.60;;;;;;;15.47;100.00;100690.09;5024157;28;20236;-71
2023/09/05 01:42:49;;;;;;;3.00;2.67;;;;;;;15.51;100.00;100695.09;5027092;28;20257;-72
2023/09/05 01:45:14;;;;;;;4.00;2.87;;;;;;;15.42;100.00;100686.16;5014286;28;20233;-72
2023/09/05 01:47:39;;;;;;;4.10;2.90;;;;;;;15.40;100.00;100685.41;5029571;28;20187;-72
2023/09/05 01:50:05;;;;;;;5.00;2.93;;;;;;;15.41;100.00;100684.50;5005184;28;20186;-72
2023/09/05 01:52:30;;;;;;;4.30;3.00;;;;;;;15.38;100.00;100682.09;5046758;28;20594;-70
2023/09/05 01:54:56;;;;;;;3.70;2.60;;;;;;;15.40;100.00;100680.22;5033832;28;20721;-71
2023/09/05 01:57:21;;;;;;;3.47;3.17;;;;;;;15.41;100.00;100676.72;5034039;28;20281;-71
2023/09/05 01:59:46;;;;;;;3.20;2.90;;;;;;;15.35;100.00;100679.72;5021021;28;20597;-71
2023/09/05 02:02:12;;;;;;;3.80;3.33;;;;;;;15.29;100.00;100686.97;5006928;28;20308;-70
2023/09/05 02:04:37;;;;;;;4.80;3.40;;;;;;;15.25;100.00;100682.88;5013935;28;20197;-70
2023/09/05 02:07:02;;;;;;;4.83;2.80;;;;;;;15.17;100.00;100685.97;5014300;28;20249;-73
2023/09/05 02:09:28;;;;;;;3.17;2.83;;;;;;;15.12;100.00;100682.84;5000304;28;20634;-70
2023/09/05 02:11:53;;;;;;;3.27;2.90;;;;;;;15.05;100.00;100685.94;5017925;28;20272;-71
2023/09/05 02:14:18;;;;;;;2.97;2.77;;;;;;;15.05;100.00;100679.00;5014703;28;20190;-70
2023/09/05 02:16:43;;;;;;;4.07;3.13;;;;;;;15.03;100.00;100686.03;5014083;28;20564;-71
2023/09/05 02:19:09;;;;;;;3.33;2.63;;;;;;;15.04;100.00;100684.28;5014177;28;20179;-71
2023/09/05 02:21:34;;;;;;;3.77;2.83;;;;;;;15.01;100.00;100673.19;5005648;28;20246;-70
2023/09/05 02:23:59;;;;;;;8.13;2.57;;;;;;;15.03;100.00;100678.25;5017040;28;20236;-67
2023/09/05 02:26:24;;;;;;;4.00;2.90;;;;;;;15.06;100.00;100679.81;5013481;28;20186;-71
2023/09/05 02:28:50;;;;;;;3.30;2.97;;;;;;;15.07;100.00;100673.72;5013637;28;20765;-73
2023/09/05 02:31:15;;;;;;;3.50;2.70;;;;;;;15.05;100.00;100678.19;5023164;28;20229;-72
2023/09/05 02:33:40;;;;;;;3.30;3.00;;;;;;;15.03;100.00;100677.44;5026695;28;20188;-72
2023/09/05 02:36:08;;;;;;;4.77;3.00;;;;;;;14.99;100.00;100679.38;5033000;28;20202;-72
2023/09/05 02:38:34;;;;;;;5.90;2.93;;;;;;;14.90;100.00;100683.41;5027993;28;20177;-72
2023/09/05 02:40:59;;;;;;;2.97;2.63;;;;;;;15.05;100.00;100680.75;5022698;28;20288;-71
2023/09/05 02:43:25;;;;;;;4.93;3.03;;;;;;;15.07;100.00;100678.88;5020982;28;20183;-72
2023/09/05 02:45:51;;;;;;;5.00;2.97;;;;;;;15.07;100.00;100679.75;5011309;28;20683;-71
2023/09/05 02:48:17;;;;;;;5.37;2.83;;;;;;;14.99;100.00;100681.97;5013348;28;20210;-72
2023/09/05 02:50:42;;;;;;;3.30;3.00;;;;;;;15.03;100.00;100677.44;5013691;28;20276;-71
2023/09/05 02:53:07;;;;;;;3.47;3.13;;;;;;;14.97;100.00;100687.25;5031114;28;20228;-71
2023/09/05 02:55:34;;;;;;;3.87;3.17;;;;;;;14.96;100.00;100690.78;5032666;28;20653;-72
2023/09/05 02:58:00;;;;;;;3.43;2.80;;;;;;;14.93;100.00;100684.97;5032449;28;20567;-71
2023/09/05 03:00:25;;;;;;;3.23;2.70;;;;;;;15.00;100.00;100683.66;5022817;28;20230;-72
2023/09/05 03:02:52;;;;;;;6.27;3.17;;;;;;;14.91;100.00;100685.06;5025241;28;20178;-72
2023/09/05 03:05:18;;;;;;;3.40;3.10;;;;;;;14.90;100.00;100683.41;5011567;28;20187;-70
2023/09/05 03:07:45;;;;;;;6.43;3.00;;;;;;;14.89;100.00;100688.69;5012918;28;20580;-71
2023/09/05 03:10:10;;;;;;;3.20;2.90;;;;;;;14.92;100.00;100684.13;5005164;28;20179;-72
2023/09/05 03:12:35;;;;;;;3.13;2.83;;;;;;;14.89;100.00;100683.50;5033687;28;20209;-72
2023/09/05 03:15:00;;;;;;;3.30;2.63;;;;;;;14.94;100.00;100673.66;5032349;28;20186;-73
2023/09/05 03:17:26;;;;;;;3.27;2.50;;;;;;;14.96;100.00;100682.19;5032754;28;20205;-72
2023/09/05 03:19:51;;;;;;;4.63;2.70;;;;;;;14.97;100.00;100681.22;5032425;28;20224;-72
2023/09/05 03:22:17;;;;;;;6.23;2.50;;;;;;;15.01;100.00;100674.94;5018907;28;20254;-70
2023/09/05 03:24:42;;;;;;;4.57;2.90;;;;;;;15.16;100.00;100673.94;5012764;28;20695;-72
2023/09/05 03:27:07;;;;;;;5.23;2.50;;;;;;;15.22;100.00;100671.88;5012984;28;20245;-70
2023/09/05 03:29:32;;;;;;;3.23;2.50;;;;;;;15.35;100.00;100669.34;5012695;28;20262;-70
2023/09/05 03:31:58;;;;;;;3.03;2.40;;;;;;;15.48;100.00;100662.41;4992745;28;20409;-72
2023/09/05 03:34:23;;;;;;;4.23;2.40;;;;;;;15.51;100.00;100658.78;5005273;28;20257;-72
2023/09/05 03:36:49;;;;;;;4.60;2.80;;;;;;;15.64;100.00;100660.44;5012564;28;20195;-73
2023/09/05 03:39:15;;;;;;;3.63;2.30;;;;;;;15.70;100.00;100659.19;5012032;28;20251;-72
2023/09/05 03:41:40;;;;;;;2.47;2.27;;;;;;;15.74;100.00;100652.88;5028126;28;20217;-73
2023/09/05 03:44:06;;;;;;;3.60;2.70;;;;;;;15.80;100.00;100655.06;5034732;28;20170;-71
2023/09/05 03:46:31;;;;;;;5.43;2.40;;;;;;;15.90;100.00;100652.72;5032151;28;20221;-71
2023/09/05 03:48:57;;;;;;;2.97;2.47;;;;;;;15.99;100.00;100646.06;5032445;28;20269;-73
2023/09/05 03:51:23;;;;;;;2.60;2.40;;;;;;;16.03;100.00;100650.09;5012837;28;20251;-72
2023/09/05 03:53:49;;;;;;;3.77;2.57;;;;;;;16.13;100.00;100647.69;5017074;28;20213;-72
2023/09/05 03:56:14;;;;;;;7.30;2.63;;;;;;;16.20;100.00;100646.34;5011187;28;20199;-72
2023/09/05 03:58:40;;;;;;;4.57;2.43;;;;;;;16.23;100.00;100640.09;5012631;28;20237;-72
2023/09/05 04:01:12;;;;;;;3.93;2.20;;;;;;;16.27;100.00;100641.53;5006249;28;20236;-70
2023/09/05 04:03:38;;;;;;;3.10;2.37;;;;;;;16.25;100.00;100641.66;5003210;28;20688;-72
2023/09/05 04:06:03;;;;;;;5.63;2.63;;;;;;;16.38;100.00;100640.78;5011771;28;20186;-72
2023/09/05 04:08:28;;;;;;;4.87;2.80;;;;;;;16.30;100.00;100643.94;5010964;28;20175;-71
2023/09/05 04:10:59;;;;;;;5.40;2.70;;;;;;;16.23;100.00;100632.31;5003762;28;20222;-72
2023/09/05 04:13:25;;;;;;;2.43;2.20;;;;;;;16.20;100.00;100630.78;5001090;28;20635;-73
2023/09/05 04:15:50;;;;;;;3.77;2.20;;;;;;;16.31;100.00;100632.63;5010925;28;20186;-70
2023/09/05 04:18:15;;;;;;;4.60;2.97;;;;;;;16.36;100.00;100627.94;5015047;28;20175;-71
2023/09/05 04:20:40;;;;;;;2.67;2.47;;;;;;;16.32;100.00;100625.66;5006558;28;20689;-72
2023/09/05 04:23:06;;;;;;;5.27;3.17;;;;;;;16.25;100.00;100639.06;5010798;28;20233;-72
2023/09/05 04:25:32;;;;;;;4.37;2.97;;;;;;;16.08;100.00;100642.00;5011343;28;20205;-72
2023/09/05 04:27:58;;;;;;;4.13;2.77;;;;;;;16.08;100.00;100639.41;5011832;28;20725;-73
2023/09/05 04:30:23;;;;;;;4.33;2.80;;;;;;;16.00;100.00;100642.53;5004697;28;20740;-72
2023/09/05 04:32:48;;;;;;;3.20;2.53;;;;;;;16.03;100.00;100633.72;5013045;28;20191;-72
2023/09/05 04:35:14;;;;;;;4.17;2.63;;;;;;;15.91;100.00;100628.41;5010844;28;20178;-72
2023/09/05 04:37:39;;;;;;;6.30;3.00;;;;;;;15.81;100.00;100628.19;5007450;28;20191;-72
2023/09/05 04:40:07;;;;;;;3.93;2.73;;;;;;;15.73;100.00;100640.84;5000007;28;20179;-73
2023/09/05 04:42:32;;;;;;;4.30;2.53;;;;;;;15.66;100.00;100639.59;5014379;28;20179;-72
2023/09/05 04:44:57;;;;;;;5.63;3.30;;;;;;;15.63;100.00;100647.59;5010470;28;20610;-71
2023/09/05 04:47:28;;;;;;;4.27;3.53;;;;;;;15.56;100.00;100652.34;5010664;28;20187;-71
2023/09/05 04:49:56;;;;;;;8.10;3.83;;;;;;;15.50;100.00;100657.94;5011431;28;20186;-72
2023/09/05 04:52:25;;;;;;;5.03;3.40;;;;;;;15.41;100.00;100649.00;5004692;28;20253;-71
2023/09/05 04:54:50;;;;;;;5.40;3.10;;;;;;;15.35;100.00;100659.78;5011070;28;20669;-71
2023/09/05 04:57:16;;;;;;;3.67;3.10;;;;;;;15.25;100.00;100658.75;5011914;28;20203;-71
2023/09/05 04:59:47;;;;;;;7.07;3.50;;;;;;;15.24;100.00;100650.13;5011353;28;20245;-72
2023/09/05 05:02:12;;;;;;;5.03;3.13;;;;;;;15.21;100.00;100659.84;5004595;28;20226;-70
2023/09/05 05:04:38;;;;;;;4.43;2.90;;;;;;;15.26;100.00;100663.00;5011136;28;20249;-72
2023/09/05 05:07:03;;;;;;;4.43;3.23;;;;;;;15.24;100.00;100665.66;5012237;28;20298;-71
2023/09/05 05:09:29;;;;;;;6.30;3.27;;;;;;;15.28;100.00;100667.16;5014149;28;20232;-71
2023/09/05 05:11:55;;;;;;;8.60;5.00;;;;;;;15.40;100.00;100660.31;5007068;28;20230;-71
2023/09/05 05:14:21;;;;;;;7.07;3.57;;;;;;;15.56;100.00;100662.72;5003548;28;20183;-73
2023/09/05 05:16:46;;;;;;;4.83;2.87;;;;;;;15.79;100.00;100665.56;5013689;28;20205;-72
2023/09/05 05:19:12;;;;;;;4.10;2.97;;;;;;;15.79;100.00;100671.56;5015079;28;20266;-73
2023/09/05 05:21:40;;;;;;;8.77;3.37;;;;;;;15.82;100.00;100676.56;5004645;28;20842;-68
2023/09/05 05:24:06;;;;;;;5.13;3.27;;;;;;;15.85;100.00;100670.34;5001573;28;20195;-72
2023/09/05 05:26:31;;;;;;;5.53;3.90;;;;;;;15.73;100.00;100677.16;5015101;28;20229;-73
2023/09/05 05:28:57;;;;;;;6.80;3.60;;;;;;;15.70;100.00;100679.13;5013761;28;20179;-73
2023/09/05 05:31:22;;;;;;;7.20;4.00;;;;;;;15.73;100.00;100684.13;5007103;28;20221;-70
2023/09/05 05:33:48;;;;;;;8.10;3.53;;;;;;;15.73;100.00;100674.56;5007405;28;20236;-71
2023/09/05 05:36:13;;;;;;;9.60;4.23;;;;;;;15.75;100.00;100680.50;5016677;28;20195;-71
2023/09/05 05:38:39;;;;;;;6.67;3.67;;;;;;;15.67;100.00;100672.38;5009156;28;20241;-71
2023/09/05 05:41:07;;;;;;;9.67;3.87;;;;;;;15.67;100.00;100674.97;5012825;28;20257;-71
2023/09/05 05:43:32;;;;;;;7.77;3.73;;;;;;;15.72;100.00;100690.25;5008534;28;20179;-71
2023/09/05 05:45:58;;;;;;;6.67;3.47;;;;;;;15.89;100.00;100678.75;5014174;28;20217;-70
2023/09/05 05:48:23;;;;;;;5.67;3.03;;;;;;;16.02;100.00;100681.34;5014441;28;20175;-70
2023/09/05 05:50:48;;;;;;;5.83;3.50;;;;;;;16.18;100.00;100675.94;5010728;28;20692;-71
2023/09/05 05:53:13;;;;;;;5.37;3.40;;;;;;;16.44;100.00;100674.94;5011217;28;20270;-71
2023/09/05 05:55:39;;;;;;;5.10;2.87;;;;;;;16.61;100.00;100672.94;5016682;28;20183;-71
2023/09/05 05:58:04;;;;;;;3.80;2.67;;;;;;;16.77;100.00;100675.28;5013859;28;20206;-72
2023/09/05 06:00:30;;;;;;;5.13;2.70;;;;;;;16.85;100.00;100666.91;5010294;28;20262;-71
2023/09/05 06:02:55;;;;;;;6.57;2.70;;;;;;;16.91;100.00;100671.69;5025859;28;20193;-71
2023/09/05 06:05:21;;;;;;;6.80;3.50;;;;;;;17.04;100.00;100666.44;5013846;28;20520;-71
2023/09/05 06:07:47;;;;;;;3.23;2.57;;;;;;;17.10;100.00;100668.59;5012226;28;20171;-70
2023/09/05 06:10:12;;;;;;;7.27;2.80;;;;;;;17.34;100.00;100668.56;5005655;28;20187;-70
2023/09/05 06:12:38;;;;;;;6.90;2.60;;;;;;;17.38;100.00;100675.19;4994621;28;20176;-71
2023/09/05 06:15:03;;;;;;;7.27;3.03;;;;;;;17.45;100.00;100675.56;5006954;28;20249;-70
2023/09/05 06:17:29;;;;;;;4.10;2.50;;;;;;;17.49;100.00;100678.75;5013703;28;20689;-72
2023/09/05 06:19:54;;;;;;;4.20;2.50;;;;;;;17.69;100.00;100678.09;5013556;28;20190;-70
2023/09/05 06:22:20;;;;;;;6.60;2.53;;;;;;;17.73;100.00;100678.69;5001190;28;20314;-71
2023/09/05 06:24:45;;;;;;;3.23;2.63;;;;;;;17.88;100.00;100681.91;5006667;28;20658;-70
2023/09/05 06:27:10;;;;;;;8.33;5.10;;;;;;;18.05;100.00;100681.47;5013809;28;20190;-71
2023/09/05 06:29:35;;;;;;;4.23;2.80;;;;;;;18.14;100.00;100677.31;5014047;28;20273;-72
2023/09/05 06:32:01;;;;;;;2.87;2.63;;;;;;;18.28;100.00;100685.84;5014179;28;20226;-71
2023/09/05 06:34:26;;;;;;;8.13;2.70;;;;;;;18.30;100.00;100687.38;5013157;28;20179;-72
2023/09/05 06:36:53;;;;;;;6.17;2.47;;;;;;;18.50;100.00;100695.41;5013471;28;20210;-71
2023/09/05 06:39:18;;;;;;;2.50;2.03;;;;;;;18.79;100.00;100681.84;5028934;28;20328;-71
2023/09/05 06:41:43;;;;;;;10.67;2.60;;;;;;;19.44;100.00;100680.06;5016377;28;20708;-73
2023/09/05 06:44:09;;;;;;;5.33;2.90;;;;;;;20.23;100.00;100678.72;5015453;28;20190;-72
2023/09/05 06:46:35;;;;;;;7.73;3.00;;;;;;;20.58;100.00;100682.63;5013436;28;20196;-72
2023/09/05 06:49:00;;;;;;;5.23;2.27;;;;;;;21.55;96.24;100688.03;5013395;28;20297;-71
2023/09/05 06:51:26;;;;;;;2.27;2.07;;;;;;;22.46;89.78;100695.31;5004815;28;20301;-71
2023/09/05 06:53:51;;;;;;;4.17;1.90;;;;;;;23.07;79.75;100692.13;5018102;28;20646;-70
2023/09/05 06:56:17;;;;;;;6.80;2.47;;;;;;;23.15;79.66;100689.59;5012826;28;20203;-70
2023/09/05 06:58:43;;;;;;;4.00;2.50;;;;;;;23.48;74.52;100695.09;5013363;28;20186;-71
2023/09/05 07:01:08;;;;;;;4.07;2.17;;;;;;;23.78;73.54;100691.19;5011403;28;20240;-70
2023/09/05 07:03:33;;;;;;;7.22;2.40;;;;;;;24.68;67.72;100694.34;5020061;28;20259;-70
2023/09/05 07:06:03;;;;;;;4.72;2.20;;;;;;;25.75;58.26;100694.31;5012190;28;20692;-71
2023/09/05 07:08:28;;;;;;;3.45;2.72;;;;;;;25.67;58.49;100689.09;5013284;28;20232;-69
2023/09/05 07:10:53;;;;;;;4.70;2.53;;;;;;;26.45;54.14;100689.31;5005348;28;20246;-71
2023/09/05 07:13:19;;;;;;;3.42;2.30;;;;;;;25.55;58.49;100688.59;5002339;28;20270;-72
2023/09/05 07:15:44;;;;;;;8.70;2.10;;;;;;;27.11;51.40;100696.78;5010539;28;20179;-72
2023/09/05 07:18:10;;;;;;;2.80;2.38;;;;;;;27.47;49.01;100699.59;5012938;28;20232;-70
2023/09/05 07:20:36;;;;;;;7.20;2.85;;;;;;;28.15;46.30;100696.88;5002682;28;20249;-71
2023/09/05 07:23:01;;;;;;;5.15;2.40;;;;;;;28.69;44.57;100702.78;5015190;28;20697;-71
2023/09/05 07:25:26;;;;;;;7.57;2.72;;;;;;;29.89;41.03;100702.03;5012256;28;20175;-71
2023/09/05 07:27:51;;;;;;;4.95;2.60;;;;;;;28.67;42.96;100695.00;5012638;28;20260;-70
2023/09/05 07:30:17;;;;;;;6.03;2.13;;;;;;;28.29;43.53;100697.03;4983659;28;20317;-72
2023/09/05 07:32:43;;;;;;;3.88;2.55;;;;;;;28.27;44.64;100686.63;5026078;28;20198;-71
2023/09/05 07:35:09;;;;;;;2.80;2.17;;;;;;;28.19;44.26;100694.69;5011908;28;20194;-71
2023/09/05 07:37:34;;;;;;;2.65;1.88;;;;;;;28.82;43.07;100689.66;5012816;28;20210;-71
2023/09/05 07:39:59;;;;;;;3.70;2.50;;;;;;;29.35;41.16;100687.66;5011116;28;20182;-71
2023/09/05 07:42:25;;;;;;;3.65;2.03;;;;;;;28.89;42.53;100696.84;5026928;28;20225;-70
2023/09/05 07:44:51;;;;;;;3.22;2.05;;;;;;;27.93;44.07;100695.94;5029234;28;20254;-70
2023/09/05 07:47:16;;;;;;;5.18;2.40;;;;;;;28.51;43.35;100698.69;5032042;28;20642;-71
2023/09/05 07:49:42;;;;;;;5.40;2.58;;;;;;;28.87;42.02;100701.53;5030798;28;20189;-73
2023/09/05 07:52:07;;;;;;;4.07;2.28;;;;;;;28.00;43.92;100701.34;5035778;28;20681;-71
2023/09/05 07:54:33;;;;;;;4.00;2.53;;;;;;;27.73;44.28;100705.44;5031606;28;20190;-71
2023/09/05 07:56:59;;;;;;;3.95;2.30;;;;;;;27.42;45.31;100698.50;5030936;28;20292;-71
2023/09/05 07:59:24;;;;;;;4.57;2.55;;;;;;;28.41;44.00;100707.97;5030640;28;20186;-70
2023/09/05 08:01:49;;;;;;;6.05;2.60;;;;;;;27.88;45.28;100710.75;5020745;28;20234;-71
2023/09/05 08:04:14;;;;;;;3.13;2.38;;;;;;;28.62;43.72;100701.88;5013059;28;20195;-70
2023/09/05 08:06:40;;;;;;;7.82;2.28;;;;;;;28.51;43.27;100697.88;5012600;28;20549;-71
2023/09/05 08:09:05;;;;;;;2.47;1.95;;;;;;;28.40;44.00;100701.03;5010843;28;20179;-71
2023/09/05 08:11:31;;;;;;;4.47;2.60;;;;;;;28.72;43.43;100702.41;5016045;28;20590;-71
2023/09/05 08:13:56;;;;;;;3.00;2.72;;;;;;;28.81;43.50;100706.56;5019506;28;20220;-70
2023/09/05 08:16:21;;;;;;;3.25;2.05;;;;;;;28.01;43.33;100706.44;5031387;28;20552;-70
2023/09/05 08:18:46;;;;;;;5.70;2.22;;;;;;;27.59;44.91;100702.63;5031462;28;20622;-70
2023/09/05 08:21:12;;;;;;;2.45;2.10;;;;;;;28.53;43.85;100697.69;5021068;28;20249;-71
2023/09/05 08:23:37;;;;;;;4.28;2.40;;;;;;;29.76;41.26;100695.66;5017921;28;20713;-69
2023/09/05 08:26:02;;;;;;;2.85;2.22;;;;;;;29.88;40.04;100697.72;5011769;28;20259;-71
2023/09/05 08:28:32;;;;;;;5.65;2.30;;;;;;;28.78;41.87;100695.53;5011683;28;20198;-70
2023/09/05 08:31:02;;;;;;;3.53;2.05;;;;;;;28.18;43.86;100703.59;5016632;28;20307;-69
2023/09/05 08:33:29;;;;;;;4.75;2.25;;;;;;;27.95;44.13;100701.88;5038772;28;20182;-70
2023/09/05 08:35:54;;;;;;;4.05;2.13;;;;;;;27.81;43.04;100703.53;5029540;28;20178;-70
2023/09/05 08:38:20;;;;;;;2.58;2.28;;;;;;;28.28;42.83;100700.66;5030852;28;20653;-70
2023/09/05 08:40:46;;;;;;;2.65;2.30;;;;;;;28.20;43.35;100690.22;5021146;28;20688;-70
2023/09/05 08:43:11;;;;;;;4.43;2.10;;;;;;;27.95;43.38;100693.16;5023418;28;20187;-71
2023/09/05 08:45:39;;;;;;;7.35;2.35;;;;;;;27.64;44.26;100694.16;5015348;28;20209;-67
2023/09/05 08:48:05;;;;;;;3.90;2.30;;;;;;;28.08;43.32;100695.16;5015793;28;20213;-71
2023/09/05 08:50:30;;;;;;;5.68;2.58;;;;;;;28.33;43.78;100696.47;5013060;28;20253;-71
2023/09/05 08:53:02;;;;;;;4.68;2.42;;;;;;;29.77;39.92;100704.41;5034030;28;20206;-70
2023/09/05 08:55:29;;;;;;;4.38;2.10;;;;;;;28.62;42.46;100693.94;5034915;28;20190;-70
2023/09/05 08:57:55;;;;;;;3.70;2.25;;;;;;;29.44;40.27;100700.56;5033464;28;20202;-70
2023/09/05 09:00:21;;;;;;;5.03;2.25;;;;;;;29.21;40.75;100695.50;5027275;28;20174;-70
2023/09/05 09:02:47;;;;;;;2.25;2.00;;;;;;;28.79;41.71;100690.03;5047633;28;20186;-71
2023/09/05 09:05:13;;;;;;;4.15;2.22;;;;;;;29.63;39.64;100693.75;5033292;28;20280;-71
2023/09/05 09:07:39;;;;;;;4.18;2.38;;;;;;;30.02;38.88;100690.69;5035038;28;20217;-70
2023/09/05 09:10:21;;;;;;;3.00;2.70;;;;;;;30.54;38.08;100696.38;5025106;28;20182;-70
2023/09/05 09:12:51;;;;;;;2.72;2.25;;;;;;;30.28;38.32;100705.91;5027833;28;20535;-69
2023/09/05 09:15:16;;;;;;;5.38;2.63;;;;;;;32.27;35.13;100697.16;5014614;28;20183;-70
2023/09/05 09:17:42;;;;;;;5.45;2.40;;;;;;;31.31;35.72;100707.47;5015171;28;20209;-70
2023/09/05 09:20:12;;;;;;;6.18;2.22;;;;;;;30.92;37.11;100701.13;5003302;28;20274;-70
2023/09/05 09:22:38;;;;;;;4.97;2.13;;;;;;;31.44;35.72;100697.84;5038124;28;21029;-70
2023/09/05 09:25:14;;;;;;;2.95;2.20;;;;;;;29.93;38.13;100693.53;5033453;28;20221;-70
2023/09/05 09:27:42;;;;;;;5.63;2.00;;;;;;;29.46;39.52;100697.72;5034694;28;20216;-69
2023/09/05 09:30:08;;;;;;;4.90;2.28;;;;;;;30.84;37.17;100690.72;5024635;28;20193;-70
2023/09/05 09:32:35;;;;;;;3.95;2.05;;;;;;;32.09;34.61;100692.53;5029593;28;20190;-71
2023/09/05 09:35:06;;;;;;;4.15;2.15;;;;;;;30.55;37.35;100685.56;5014404;28;20554;-69
2023/09/05 09:37:32;;;;;;;3.38;2.25;;;;;;;30.45;37.53;100684.28;5015013;28;20191;-70
2023/09/05 09:40:02;;;;;;;4.10;2.30;;;;;;;30.95;36.71;100686.59;5014524;28;20258;-68
2023/09/05 09:42:28;;;;;;;2.42;2.22;;;;;;;30.93;37.11;100686.00;5023644;28;20241;-70
2023/09/05 09:44:54;;;;;;;5.05;2.33;;;;;;;32.02;34.61;100683.78;5033868;28;20221;-70
2023/09/05 09:47:19;;;;;;;2.95;2.25;;;;;;;31.00;36.67;100692.94;5034624;28;20228;-71
2023/09/05 09:49:49;;;;;;;4.00;2.08;;;;;;;30.43;37.43;100680.00;5034046;28;20231;-69
2023/09/05 09:52:17;;;;;;;4.95;2.40;;;;;;;30.82;37.58;100671.50;5021283;28;20237;-70
2023/09/05 09:54:46;;;;;;;3.45;2.28;;;;;;;31.13;36.44;100672.75;5013027;28;20228;-70
2023/09/05 09:57:20;;;;;;;3.97;2.53;;;;;;;31.35;36.22;100675.97;5013305;28;20550;-71
2023/09/05 09:59:50;;;;;;;2.50;2.15;;;;;;;32.85;34.42;100678.56;5014355;28;20183;-71
2023/09/05 10:02:16;;;;;;;4.13;2.00;;;;;;;32.63;33.58;100679.72;5019481;28;20234;-71
2023/09/05 10:04:43;;;;;;;3.75;2.20;;;;;;;32.98;34.51;100678.47;5013981;28;20614;-70
2023/09/05 10:07:14;;;;;;;2.85;1.95;;;;;;;33.33;33.00;100675.31;5013992;28;20175;-70
2023/09/05 10:09:40;;;;;;;2.83;2.33;;;;;;;33.92;32.54;100670.31;5014328;28;20182;-71
2023/09/05 10:12:07;;;;;;;2.63;2.38;;;;;;;33.24;32.92;100671.25;5021805;28;20236;-71
2023/09/05 10:14:35;;;;;;;2.17;1.95;;;;;;;32.77;33.01;100664.53;5022140;28;20559;-71
2023/09/05 10:17:02;;;;;;;2.03;1.92;;;;;;;32.78;33.80;100666.13;5032364;28;20564;-71
2023/09/05 10:19:32;;;;;;;2.17;1.98;;;;;;;31.35;35.22;100652.88;5033808;28;20262;-71
2023/09/05 10:21:58;;;;;;;2.28;2.00;;;;;;;33.84;32.47;100651.13;5022073;28;20688;-71
2023/09/05 10:24:32;;;;;;;2.83;1.83;;;;;;;32.61;35.01;100657.84;5014088;28;20232;-70
2023/09/05 10:26:58;;;;;;;6.20;2.40;;;;;;;31.08;37.09;100661.91;5012630;28;20188;-70
2023/09/05 10:29:43;;;;;;;2.90;2.10;;;;;;;30.77;37.88;100655.38;5013942;28;20202;-70
2023/09/05 10:32:10;;;;;;;4.82;2.20;;;;;;;30.31;39.19;100648.94;5036354;28;20236;-70
2023/09/05 10:34:47;;;;;;;5.22;2.22;;;;;;;28.44;42.81;100642.25;5033295;28;20210;-70
2023/09/05 10:37:43;;;;;;;3.55;2.05;;;;;;;28.46;43.67;100634.94;5032583;28;20209;-70
2023/09/05 10:40:09;;;;;;;3.47;2.13;;;;;;;27.26;48.20;100625.50;5022162;28;20260;-69
2023/09/05 10:42:40;;;;;;;5.18;2.20;;;;;;;26.17;53.33;100632.59;5027809;28;20315;-71
2023/09/05 10:45:16;;;;;;;2.50;2.30;;;;;;;25.20;58.25;100622.16;5013546;28;20189;-71
2023/09/05 10:47:41;;;;;;;2.53;2.30;;;;;;;24.79;63.81;100621.19;5011806;28;20186;-71
2023/09/05 10:50:08;;;;;;;3.97;2.95;;;;;;;25.03;63.30;100619.56;5004581;28;20618;-70
2023/09/05 10:52:34;;;;;;;3.63;2.22;;;;;;;24.56;66.68;100618.38;5034609;28;20677;-69
2023/09/05 10:55:34;;;;;;;3.10;1.88;;;;;;;24.72;67.70;100609.72;5032568;28;20547;-70
2023/09/05 10:57:59;;;;;;;2.13;1.92;;;;;;;24.79;65.10;100610.66;5032880;28;20237;-71
2023/09/05 11:00:37;;;;;;;2.40;2.20;;;;;;;24.71;67.76;100599.31;5022635;28;20261;-70
2023/09/05 11:03:12;;;;;;;2.33;2.13;;;;;;;24.45;68.66;100602.91;5011011;28;20262;-70
2023/09/05 11:05:40;;;;;;;2.30;2.10;;;;;;;24.55;67.34;100590.44;5011795;28;20277;-70
2023/09/05 11:08:19;;;;;;;3.33;2.25;;;;;;;24.57;70.16;100590.25;5011775;28;20187;-69
2023/09/05 11:10:44;;;;;;;4.18;2.58;;;;;;;24.67;69.53;100590.94;5008125;28;20311;-69
2023/09/05 11:13:14;;;;;;;3.08;2.35;;;;;;;24.83;66.50;100595.38;5022665;28;20198;-70
2023/09/05 11:15:43;;;;;;;2.50;2.22;;;;;;;24.56;65.71;100592.06;5010939;28;20266;-70
2023/09/05 11:18:12;;;;;;;2.85;2.10;;;;;;;24.85;69.09;100588.16;5012814;28;20289;-69